createdAt,value
2022-10-17T00:01:37.375Z,3.33
2022-10-17T00:04:04.353Z,4.43
2022-10-17T00:06:31.056Z,5.77
2022-10-17T00:08:57.774Z,7.27
2022-10-17T00:11:24.868Z,6.00
2022-10-17T00:13:54.653Z,4.53
2022-10-17T00:16:30.158Z,4.27
2022-10-17T00:18:57.401Z,6.33
2022-10-17T00:21:25.292Z,6.37
2022-10-17T00:23:52.448Z,6.30
2022-10-17T00:26:19.585Z,5.60
2022-10-17T00:28:50.921Z,4.20
2022-10-17T00:31:19.556Z,6.40
2022-10-17T00:33:47.203Z,5.03
2022-10-17T00:36:16.974Z,6.53
2022-10-17T00:38:46.317Z,3.50
2022-10-17T00:41:19.403Z,3.77
2022-10-17T00:43:53.337Z,6.00
2022-10-17T00:46:21.734Z,4.43
2022-10-17T00:48:50.982Z,4.03
2022-10-17T00:51:21.106Z,5.00
2022-10-17T00:53:48.257Z,22.97
2022-10-17T00:56:16.477Z,12.17
2022-10-17T00:58:43.239Z,7.63
2022-10-17T01:01:10.044Z,5.87
2022-10-17T01:03:36.958Z,4.30
2022-10-17T01:06:03.753Z,4.90
2022-10-17T01:08:30.608Z,4.67
2022-10-17T01:11:03.204Z,6.10
2022-10-17T01:13:53.050Z,8.13
2022-10-17T01:16:44.892Z,4.37
2022-10-17T01:19:44.597Z,4.10
2022-10-17T01:22:26.286Z,6.63
2022-10-17T01:25:17.848Z,3.67
2022-10-17T01:28:11.129Z,6.50
2022-10-17T01:30:49.211Z,5.73
2022-10-17T01:33:27.929Z,3.53
2022-10-17T01:36:01.715Z,6.50
2022-10-17T01:38:36.880Z,4.03
2022-10-17T01:41:12.368Z,7.50
2022-10-17T01:44:21.356Z,4.20
2022-10-17T01:46:51.826Z,9.03
2022-10-17T01:49:23.098Z,5.50
2022-10-17T01:52:04.828Z,4.10
2022-10-17T01:54:42.652Z,4.87
2022-10-17T01:57:28.060Z,5.07
2022-10-17T01:59:56.179Z,4.17
2022-10-17T02:02:24.793Z,4.20
2022-10-17T02:04:53.284Z,4.20
2022-10-17T02:07:20.027Z,4.63
2022-10-17T02:09:46.769Z,3.90
2022-10-17T02:12:24.974Z,6.80
2022-10-17T02:15:00.490Z,4.07
2022-10-17T02:17:56.995Z,4.10
2022-10-17T02:20:31.750Z,4.70
2022-10-17T02:24:00.047Z,6.23
2022-10-17T02:26:32.515Z,5.40
2022-10-17T02:29:08.621Z,4.80
2022-10-17T02:31:51.438Z,4.30
2022-10-17T02:34:24.917Z,4.83
2022-10-17T02:36:58.051Z,4.47
2022-10-17T02:39:27.022Z,4.20
2022-10-17T02:41:57.495Z,5.80
2022-10-17T02:44:25.111Z,3.80
2022-10-17T02:47:14.032Z,4.70
2022-10-17T02:49:44.803Z,4.30
2022-10-17T02:52:17.648Z,4.17
2022-10-17T02:55:06.238Z,5.70
2022-10-17T02:57:38.379Z,5.10
2022-10-17T03:00:08.790Z,5.00
2022-10-17T03:02:48.686Z,6.30
2022-10-17T03:05:19.489Z,4.57
2022-10-17T03:07:46.424Z,10.60
2022-10-17T03:10:13.330Z,6.87
2022-10-17T03:12:40.108Z,4.87
2022-10-17T03:15:07.367Z,6.13
2022-10-17T03:17:34.446Z,6.67
2022-10-17T03:20:01.399Z,4.53
2022-10-17T03:22:28.413Z,5.33
2022-10-17T03:24:55.272Z,9.10
2022-10-17T03:27:22.010Z,4.63
2022-10-17T03:29:48.707Z,5.20
2022-10-17T03:32:15.546Z,4.40
2022-10-17T03:34:42.419Z,4.00
2022-10-17T03:37:09.174Z,7.57
2022-10-17T03:39:35.920Z,4.83
2022-10-17T03:42:02.718Z,8.63
2022-10-17T03:44:29.419Z,4.63
2022-10-17T03:46:57.599Z,4.70
2022-10-17T03:49:24.368Z,3.90
2022-10-17T03:51:51.121Z,6.47
2022-10-17T03:54:17.916Z,4.30
2022-10-17T03:56:44.647Z,4.17
2022-10-17T03:59:15.374Z,3.53
2022-10-17T04:01:42.430Z,4.70
2022-10-17T04:04:09.967Z,4.30
2022-10-17T04:06:37.717Z,6.37
2022-10-17T04:09:05.492Z,6.97
2022-10-17T04:11:32.304Z,7.10
2022-10-17T04:13:59.699Z,6.33
2022-10-17T04:16:27.595Z,5.17
2022-10-17T04:18:59.143Z,7.63
2022-10-17T04:21:27.542Z,7.60
2022-10-17T04:23:59.566Z,12.47
2022-10-17T04:26:27.216Z,9.97
2022-10-17T04:28:53.959Z,4.30
2022-10-17T04:31:20.781Z,4.27
2022-10-17T04:33:49.015Z,4.87
2022-10-17T04:36:18.276Z,8.83
2022-10-17T04:38:45.222Z,6.90
2022-10-17T04:41:14.458Z,6.70
2022-10-17T04:43:41.315Z,4.97
2022-10-17T04:46:11.726Z,4.83
2022-10-17T04:48:39.227Z,12.63
2022-10-17T04:51:08.576Z,5.73
2022-10-17T04:53:37.782Z,9.10
2022-10-17T04:56:25.121Z,5.30
2022-10-17T04:58:52.427Z,6.90
2022-10-17T05:01:23.683Z,5.70
2022-10-17T05:03:51.196Z,8.50
2022-10-17T05:06:24.199Z,5.17
2022-10-17T05:08:51.329Z,8.73
2022-10-17T05:11:18.225Z,4.53
2022-10-17T05:13:45.199Z,7.80
2022-10-17T05:16:12.214Z,6.07
2022-10-17T05:18:38.902Z,5.77
2022-10-17T05:21:05.762Z,8.20
2022-10-17T05:23:32.894Z,5.33
2022-10-17T05:25:59.722Z,7.83
2022-10-17T05:28:26.507Z,8.00
2022-10-17T05:30:53.303Z,7.40
2022-10-17T05:33:20.191Z,8.13
2022-10-17T05:35:46.927Z,5.30
2022-10-17T05:38:13.751Z,7.73
2022-10-17T05:40:40.457Z,10.13
2022-10-17T05:43:07.199Z,5.80
2022-10-17T05:45:33.967Z,6.37
2022-10-17T05:48:00.639Z,6.13
2022-10-17T05:50:27.474Z,8.63
2022-10-17T05:52:55.060Z,7.00
2022-10-17T05:55:22.256Z,5.53
2022-10-17T05:57:49.943Z,5.70
2022-10-17T06:00:17.063Z,5.00
2022-10-17T06:02:46.030Z,8.20
2022-10-17T06:05:13.682Z,7.10
2022-10-17T06:07:40.943Z,9.43
2022-10-17T06:10:08.228Z,20.63
2022-10-17T06:12:34.914Z,11.60
2022-10-17T06:15:01.653Z,15.47
2022-10-17T06:17:29.186Z,13.93
2022-10-17T06:19:56.225Z,9.23
2022-10-17T06:22:23.181Z,5.90
2022-10-17T06:24:49.989Z,9.97
2022-10-17T06:27:16.663Z,8.70
2022-10-17T06:29:43.383Z,6.87
2022-10-17T06:32:12.734Z,7.10
2022-10-17T06:34:41.891Z,6.27
2022-10-17T06:37:08.673Z,11.80
2022-10-17T06:39:35.930Z,10.43
2022-10-17T06:42:03.934Z,10.03
2022-10-17T06:44:32.037Z,8.57
2022-10-17T06:46:59.966Z,14.00
2022-10-17T06:49:27.564Z,7.23
2022-10-17T06:51:54.420Z,6.30
2022-10-17T06:54:21.379Z,5.70
2022-10-17T06:56:48.301Z,8.73
2022-10-17T06:59:15.734Z,11.00
2022-10-17T07:01:46.069Z,22.77
2022-10-17T07:04:14.212Z,7.97
2022-10-17T07:06:40.968Z,7.23
2022-10-17T07:09:07.920Z,10.43
2022-10-17T07:11:37.775Z,7.80
2022-10-17T07:14:04.694Z,8.13
2022-10-17T07:16:31.663Z,5.87
2022-10-17T07:18:58.358Z,4.80
2022-10-17T07:21:25.612Z,6.87
2022-10-17T07:23:52.534Z,5.40
2022-10-17T07:26:19.759Z,7.37
2022-10-17T07:28:51.208Z,11.43
2022-10-17T07:31:19.583Z,12.37
2022-10-17T07:36:18.839Z,4.20
2022-10-17T07:38:45.699Z,6.60
2022-10-17T07:41:17.757Z,4.10
2022-10-17T07:43:47.639Z,4.20
2022-10-17T07:46:14.345Z,5.30
2022-10-17T07:48:41.405Z,4.13
2022-10-17T07:51:09.517Z,5.50
2022-10-17T07:53:38.081Z,3.80
2022-10-17T07:56:07.067Z,4.80
2022-10-17T07:58:34.389Z,8.40
2022-10-17T08:03:34.577Z,6.23
2022-10-17T08:06:02.314Z,5.60
2022-10-17T08:08:29.457Z,5.13
2022-10-17T08:11:05.995Z,4.70
2022-10-17T08:13:33.628Z,5.27
2022-10-17T08:16:05.742Z,4.63
2022-10-17T08:18:32.720Z,6.13
2022-10-17T08:21:01.082Z,33.23
2022-10-17T08:23:28.977Z,25.80
2022-10-17T08:25:58.656Z,7.87
2022-10-17T08:28:25.403Z,4.73
2022-10-17T08:30:52.189Z,6.77
2022-10-17T08:33:18.884Z,4.70
2022-10-17T08:35:45.607Z,4.50
2022-10-17T08:38:13.426Z,4.77
2022-10-17T08:40:42.869Z,4.10
2022-10-17T08:43:18.364Z,5.60
2022-10-17T08:45:54.784Z,8.50
2022-10-17T08:48:25.451Z,4.40
2022-10-17T08:51:16.623Z,4.50
2022-10-17T08:53:55.675Z,9.13
2022-10-17T08:59:17.778Z,4.53
2022-10-17T09:02:00.294Z,5.83
2022-10-17T09:04:46.114Z,3.50
2022-10-17T09:07:26.350Z,3.43
2022-10-17T09:09:59.320Z,3.37
2022-10-17T09:12:44.183Z,2.97
2022-10-17T09:15:37.033Z,6.60
2022-10-17T09:18:09.801Z,6.50
2022-10-17T09:20:53.973Z,3.20
2022-10-17T09:23:25.111Z,4.27
2022-10-17T09:25:58.361Z,3.60
2022-10-17T09:28:35.791Z,2.97
2022-10-17T09:31:22.569Z,3.43
2022-10-17T09:33:55.426Z,5.40
2022-10-17T09:36:24.458Z,8.47
2022-10-17T09:39:04.666Z,4.73
2022-10-17T09:41:46.377Z,5.30
2022-10-17T09:44:19.556Z,4.50
2022-10-17T09:47:20.475Z,4.13
2022-10-17T09:49:48.691Z,4.17
2022-10-17T09:52:20.904Z,3.40
2022-10-17T09:54:51.956Z,6.80
2022-10-17T09:57:20.687Z,3.30
2022-10-17T09:59:56.933Z,3.43
2022-10-17T10:02:25.384Z,2.57
2022-10-17T10:05:16.286Z,2.83
2022-10-17T10:07:46.046Z,3.00
2022-10-17T10:10:28.178Z,4.40
2022-10-17T10:13:16.160Z,4.17
2022-10-17T10:15:45.782Z,3.13
2022-10-17T10:18:36.075Z,5.27
2022-10-17T10:21:21.554Z,4.80
2022-10-17T10:24:19.337Z,4.20
2022-10-17T10:26:50.890Z,3.23
2022-10-17T10:29:41.535Z,4.43
2022-10-17T10:32:30.657Z,3.50
2022-10-17T10:35:18.961Z,5.57
2022-10-17T10:37:50.828Z,3.67
2022-10-17T10:40:49.865Z,3.37
2022-10-17T10:43:42.937Z,4.00
2022-10-17T10:46:36.300Z,2.90
2022-10-17T10:49:03.364Z,3.17
2022-10-17T10:51:41.368Z,2.70
2022-10-17T10:54:34.262Z,3.13
2022-10-17T10:57:05.046Z,3.10
2022-10-17T10:59:47.432Z,3.37
2022-10-17T11:02:26.843Z,3.00
2022-10-17T11:04:59.474Z,5.40
2022-10-17T11:07:28.913Z,3.20
2022-10-17T11:10:00.688Z,3.30
2022-10-17T11:12:30.346Z,2.70
2022-10-17T11:15:21.704Z,5.03
2022-10-17T11:17:59.351Z,4.53
2022-10-17T11:20:30.326Z,4.20
2022-10-17T11:23:19.736Z,4.53
2022-10-17T11:25:53.565Z,3.00
2022-10-17T11:28:22.261Z,4.03
2022-10-17T11:31:03.364Z,4.00
2022-10-17T11:33:50.618Z,6.30
2022-10-17T11:36:21.085Z,3.67
2022-10-17T11:39:00.177Z,3.83
2022-10-17T11:41:46.199Z,3.40
2022-10-17T11:44:22.061Z,8.27
2022-10-17T11:46:54.633Z,2.40
2022-10-17T11:52:03.143Z,5.43
2022-10-17T11:54:38.161Z,3.60
2022-10-17T11:57:29.562Z,4.23
2022-10-17T12:00:18.270Z,4.77
2022-10-17T12:03:21.631Z,7.10
2022-10-17T12:06:11.965Z,2.00
2022-10-17T12:08:52.030Z,3.00
2022-10-17T12:11:50.769Z,3.30
2022-10-17T12:14:46.649Z,2.83
2022-10-17T12:17:39.312Z,2.40
2022-10-17T12:20:21.722Z,4.47
2022-10-17T12:22:50.478Z,3.57
2022-10-17T12:25:24.049Z,3.03
2022-10-17T12:27:51.274Z,3.27
2022-10-17T12:30:19.685Z,3.33
2022-10-17T12:33:06.091Z,6.83
2022-10-17T12:35:35.604Z,2.50
2022-10-17T12:38:04.181Z,4.43
2022-10-17T12:40:37.185Z,3.30
2022-10-17T12:43:29.561Z,3.10
2022-10-17T12:45:57.156Z,2.70
2022-10-17T12:48:39.505Z,6.00
2022-10-17T12:54:15.127Z,3.00
2022-10-17T12:56:45.326Z,4.17
2022-10-17T12:59:17.412Z,5.07
2022-10-17T13:01:47.466Z,3.20
2022-10-17T13:04:15.492Z,3.43
2022-10-17T13:06:48.152Z,3.90
2022-10-17T13:09:30.761Z,2.97
2022-10-17T13:12:00.826Z,8.93
2022-10-17T13:14:28.480Z,4.37
2022-10-17T13:16:59.611Z,7.53
2022-10-17T13:19:30.668Z,5.93
2022-10-17T13:22:06.767Z,4.57
2022-10-17T13:24:37.869Z,2.97
2022-10-17T13:27:06.691Z,2.57
2022-10-17T13:29:33.623Z,3.20
2022-10-17T13:32:05.479Z,2.80
2022-10-17T13:34:34.021Z,3.03
2022-10-17T13:37:07.015Z,2.50
2022-10-17T13:39:55.833Z,4.30
2022-10-17T13:42:27.706Z,3.77
2022-10-17T13:44:56.082Z,3.40
2022-10-17T13:47:25.809Z,3.50
2022-10-17T13:49:55.478Z,2.70
2022-10-17T13:52:25.777Z,3.17
2022-10-17T13:54:53.825Z,2.80
2022-10-17T13:57:29.655Z,4.50
2022-10-17T13:59:59.637Z,3.03
2022-10-17T14:02:30.853Z,3.37
2022-10-17T14:05:18.947Z,3.10
2022-10-17T14:08:13.361Z,3.20
2022-10-17T14:10:43.575Z,4.27
2022-10-17T14:13:28.285Z,2.70
2022-10-17T14:15:57.793Z,2.93
2022-10-17T14:18:36.185Z,5.63
2022-10-17T14:21:40.515Z,2.53
2022-10-17T14:24:11.474Z,5.20
2022-10-17T14:26:54.375Z,9.67
2022-10-17T14:29:25.716Z,7.17
2022-10-17T14:32:05.119Z,5.60
2022-10-17T14:34:40.795Z,7.37
2022-10-17T14:37:13.134Z,2.90
2022-10-17T14:39:40.107Z,5.70
2022-10-17T14:42:07.157Z,3.83
2022-10-17T14:44:36.356Z,3.40
2022-10-17T14:47:30.673Z,2.90
2022-10-17T14:50:18.859Z,2.70
2022-10-17T14:53:00.353Z,3.73
2022-10-17T14:55:29.835Z,3.00
2022-10-17T14:57:56.657Z,3.87
2022-10-17T15:00:23.901Z,3.83
2022-10-17T15:02:52.676Z,3.90
2022-10-17T15:05:20.448Z,4.90
2022-10-17T15:07:47.445Z,3.37
2022-10-17T15:10:34.020Z,3.73
2022-10-17T15:13:26.515Z,4.40
2022-10-17T15:15:51.906Z,4.57
2022-10-17T15:18:18.937Z,2.83
2022-10-17T15:20:45.621Z,4.40
2022-10-17T15:23:12.324Z,3.80
2022-10-17T15:25:39.575Z,3.57
2022-10-17T15:28:06.533Z,3.60
2022-10-17T15:30:36.333Z,7.73
2022-10-17T15:33:03.115Z,6.57
2022-10-17T15:35:30.267Z,4.50
2022-10-17T15:37:57.202Z,4.70
2022-10-17T15:40:29.198Z,5.97
2022-10-17T15:42:56.465Z,3.03
2022-10-17T15:45:23.860Z,3.27
2022-10-17T15:47:58.776Z,4.03
2022-10-17T15:50:25.559Z,3.47
2022-10-17T15:52:52.557Z,3.33
2022-10-17T15:55:19.970Z,7.23
2022-10-17T15:57:48.747Z,6.47
2022-10-17T16:00:33.708Z,4.67
2022-10-17T16:03:00.557Z,5.67
2022-10-17T16:05:28.508Z,3.87
2022-10-17T16:07:55.839Z,4.57
2022-10-17T16:10:23.423Z,3.63
2022-10-17T16:12:50.652Z,3.23
2022-10-17T16:15:23.646Z,4.13
2022-10-17T16:17:51.969Z,3.50
2022-10-17T16:20:19.824Z,4.67
2022-10-17T16:22:47.254Z,5.90
2022-10-17T16:25:25.285Z,4.60
2022-10-17T16:27:54.933Z,5.47
2022-10-17T16:32:55.498Z,9.57
2022-10-17T16:35:25.013Z,9.40
2022-10-17T16:37:51.759Z,7.87
2022-10-17T16:40:18.669Z,11.50
2022-10-17T16:42:45.648Z,6.73
2022-10-17T16:45:20.606Z,6.17
2022-10-17T16:47:47.971Z,9.07
2022-10-17T16:50:15.089Z,11.37
2022-10-17T16:52:42.393Z,8.27
2022-10-17T16:55:10.018Z,7.60
2022-10-17T16:57:36.916Z,8.90
2022-10-17T17:00:05.959Z,7.93
2022-10-17T17:02:33.066Z,9.80
2022-10-17T17:05:00.008Z,8.33
2022-10-17T17:07:29.362Z,12.10
2022-10-17T17:09:56.639Z,8.67
2022-10-17T17:12:23.368Z,8.90
2022-10-17T17:14:50.898Z,8.30
2022-10-17T17:17:30.365Z,9.67
2022-10-17T17:20:06.348Z,8.60
2022-10-17T17:22:33.167Z,7.60
2022-10-17T17:24:59.845Z,11.83
2022-10-17T17:27:28.898Z,7.90
2022-10-17T17:29:55.980Z,8.70
2022-10-17T17:32:22.721Z,5.03
2022-10-17T17:34:49.625Z,6.13
2022-10-17T17:37:16.363Z,6.57
2022-10-17T17:39:43.085Z,6.43
2022-10-17T17:42:09.822Z,6.90
2022-10-17T17:44:36.548Z,6.80
2022-10-17T17:47:03.278Z,10.20
2022-10-17T17:49:30.361Z,7.00
2022-10-17T17:51:57.167Z,6.17
2022-10-17T17:54:23.964Z,9.83
2022-10-17T17:56:50.736Z,6.07
2022-10-17T17:59:17.439Z,7.03
2022-10-17T18:01:44.396Z,8.73
2022-10-17T18:04:11.958Z,7.70
2022-10-17T18:06:39.615Z,6.90
2022-10-17T18:09:08.036Z,7.60
2022-10-17T18:11:35.579Z,7.50
2022-10-17T18:14:05.229Z,23.67
2022-10-17T18:16:33.650Z,6.23
2022-10-17T18:19:06.622Z,7.97
2022-10-17T18:21:34.252Z,6.60
2022-10-17T18:24:00.995Z,5.20
2022-10-17T18:26:28.368Z,9.50
2022-10-17T18:28:55.361Z,9.43
2022-10-17T18:31:28.637Z,8.90
2022-10-17T18:33:57.780Z,8.03
2022-10-17T18:36:26.199Z,9.40
2022-10-17T18:38:54.091Z,9.80
2022-10-17T18:41:23.134Z,9.00
2022-10-17T18:43:51.202Z,7.40
2022-10-17T18:46:20.495Z,8.70
2022-10-17T18:48:48.487Z,7.80
2022-10-17T18:51:16.992Z,7.20
2022-10-17T18:53:45.391Z,10.47
2022-10-17T18:56:13.241Z,7.57
2022-10-17T18:58:40.757Z,8.93
2022-10-17T19:01:15.382Z,7.53
2022-10-17T19:03:43.137Z,8.50
2022-10-17T19:06:11.338Z,10.87
2022-10-17T19:08:38.674Z,7.93
2022-10-17T19:11:10.616Z,7.17
2022-10-17T19:13:37.990Z,9.10
2022-10-17T19:16:09.561Z,11.77
2022-10-17T19:18:36.805Z,10.23
2022-10-17T19:21:05.400Z,9.37
2022-10-17T19:23:32.729Z,9.90
2022-10-17T19:26:09.009Z,9.23
2022-10-17T19:28:37.824Z,8.20
2022-10-17T19:31:06.368Z,9.97
2022-10-17T19:33:33.984Z,10.87
2022-10-17T19:36:11.633Z,10.83
2022-10-17T19:38:38.387Z,15.70
2022-10-17T19:41:07.152Z,12.93
2022-10-17T19:43:36.963Z,11.60
2022-10-17T19:46:05.507Z,13.40
2022-10-17T19:48:34.455Z,13.67
2022-10-17T19:51:01.147Z,10.10
2022-10-17T19:53:29.367Z,10.57
2022-10-17T19:55:57.290Z,13.53
2022-10-17T19:58:25.414Z,9.63
2022-10-17T20:00:55.399Z,11.67
2022-10-17T20:03:22.882Z,14.57
2022-10-17T20:05:49.619Z,9.97
2022-10-17T20:08:17.566Z,12.10
2022-10-17T20:10:44.641Z,11.93
2022-10-17T20:13:11.625Z,11.10
2022-10-17T20:15:38.923Z,10.80
2022-10-17T20:18:06.524Z,8.20
2022-10-17T20:20:36.826Z,10.57
2022-10-17T20:23:04.382Z,12.07
2022-10-17T20:25:33.318Z,10.03
2022-10-17T20:28:00.118Z,9.73
2022-10-17T20:30:26.903Z,8.80
2022-10-17T20:32:55.605Z,8.73
2022-10-17T20:35:22.736Z,10.57
2022-10-17T20:37:49.671Z,14.03
2022-10-17T20:40:34.116Z,9.47
2022-10-17T20:43:01.277Z,7.43
2022-10-17T20:45:43.601Z,9.80
2022-10-17T20:48:15.704Z,9.30
2022-10-17T20:50:43.686Z,8.40
2022-10-17T20:53:35.515Z,9.33
2022-10-17T20:56:09.313Z,10.27
2022-10-17T20:58:36.326Z,11.50
2022-10-17T21:01:10.165Z,24.40
2022-10-17T21:03:41.037Z,12.13
2022-10-17T21:06:11.250Z,15.27
2022-10-17T21:08:38.220Z,9.93
2022-10-17T21:11:28.577Z,9.27
2022-10-17T21:14:00.588Z,11.93
2022-10-17T21:16:28.388Z,12.33
2022-10-17T21:18:56.063Z,14.47
2022-10-17T21:21:28.479Z,10.73
2022-10-17T21:23:58.629Z,8.47
2022-10-17T21:26:25.324Z,10.60
2022-10-17T21:28:52.369Z,11.07
2022-10-17T21:31:23.736Z,10.53
2022-10-17T21:33:53.334Z,9.93
2022-10-17T21:36:20.551Z,10.53
2022-10-17T21:38:49.562Z,8.87
2022-10-17T21:41:21.871Z,12.27
2022-10-17T21:43:52.272Z,9.20
2022-10-17T21:46:19.694Z,12.07
2022-10-17T21:48:47.953Z,12.67
2022-10-17T21:51:17.531Z,11.57
2022-10-17T21:53:44.740Z,11.17
2022-10-17T21:56:18.089Z,10.47
2022-10-17T21:58:45.256Z,11.33
2022-10-17T22:01:17.715Z,12.80
2022-10-17T22:03:49.389Z,11.43
2022-10-17T22:06:38.566Z,15.27
2022-10-17T22:09:07.288Z,11.73
2022-10-17T22:11:35.504Z,10.37
2022-10-17T22:14:06.241Z,13.63
2022-10-17T22:16:34.444Z,10.80
2022-10-17T22:19:06.138Z,9.73
2022-10-17T22:21:35.008Z,9.30
2022-10-17T22:24:04.327Z,9.97
2022-10-17T22:26:32.801Z,15.97
2022-10-17T22:28:59.940Z,9.53
2022-10-17T22:31:26.914Z,10.70
2022-10-17T22:33:53.640Z,12.80
2022-10-17T22:36:20.328Z,11.23
2022-10-17T22:38:47.148Z,10.97
2022-10-17T22:41:13.893Z,9.57
2022-10-17T22:43:40.663Z,12.10
2022-10-17T22:46:07.857Z,10.30
2022-10-17T22:48:35.282Z,10.30
2022-10-17T22:51:02.022Z,10.13
2022-10-17T22:53:29.833Z,11.20
2022-10-17T22:56:01.825Z,9.97
2022-10-17T22:58:29.888Z,9.40
2022-10-17T23:00:57.480Z,8.03
2022-10-17T23:03:26.388Z,7.37
2022-10-17T23:05:53.188Z,7.60
2022-10-17T23:08:20.588Z,11.80
2022-10-17T23:10:47.980Z,8.30
2022-10-17T23:13:15.523Z,8.17
2022-10-17T23:15:43.365Z,10.13
2022-10-17T23:18:10.240Z,7.40
2022-10-17T23:20:37.881Z,8.57
2022-10-17T23:23:05.165Z,7.40
2022-10-17T23:25:34.208Z,8.17
2022-10-17T23:28:01.343Z,9.90
2022-10-17T23:30:28.521Z,6.40
2022-10-17T23:32:55.232Z,8.80
2022-10-17T23:35:21.992Z,6.30
2022-10-17T23:37:48.688Z,7.67
2022-10-17T23:40:15.471Z,11.63
2022-10-17T23:42:42.373Z,5.90
2022-10-17T23:45:09.532Z,6.07
2022-10-17T23:47:36.287Z,6.70
2022-10-17T23:50:03.999Z,8.10
2022-10-17T23:52:31.043Z,7.47
2022-10-17T23:54:57.987Z,10.30
2022-10-17T23:57:24.744Z,8.37
2022-10-17T23:59:51.461Z,11.57
